This is the latest recevied weather packets stored in our database for station/object XQ6AK-15. If no packets are shown the sender has not sent any weather packets the latest 10 day(s).
| Time | Temp. | Humidity | Pressure | Rain* | Wind** | Luminosity | Snow |
|---|---|---|---|---|---|---|---|
| 1787418074 | 11.67° C | 81% | 1018.1 hPa | 0 mm | - | 200 W/m² | - |
| 1787417769 | 11.67° C | 82% | 1018 hPa | 0 mm | - | 363 W/m² | - |
| 1787417469 | 11.67° C | 80% | 1018.3 hPa | 0 mm | - | 494 W/m² | - |
| 1787417164 | 11.67° C | 82% | 1018.4 hPa | 0 mm | - | 270 W/m² | - |
| 1787416860 | 11.67° C | 81% | 1018.5 hPa | 0 mm | - | 311 W/m² | - |
| 1787416555 | 11.67° C | 80% | 1018.7 hPa | 0 mm | - | 376 W/m² | - |
| 1787416250 | 11.11° C | 82% | 1018.7 hPa | 0 mm | - | 308 W/m² | - |
| 1787415945 | 11.67° C | 83% | 1018.7 hPa | 0 mm | - | 205 W/m² | - |
| 1787415645 | 11.67° C | 82% | 1018.8 hPa | 0 mm | - | 480 W/m² | - |
| 1787415341 | 10.56° C | 83% | 1019 hPa | 0 mm | - | 387 W/m² | - |
| 1787415036 | 10.56° C | 86% | 1019 hPa | 0 mm | - | 361 W/m² | - |
| 1787414732 | 9.44° C | 89% | 1019 hPa | 0 mm | - | 468 W/m² | - |
| 1787414427 | 10.56° C | 85% | 1019 hPa | 0 mm | - | 527 W/m² | - |
| 1787414125 | 10° C | 88% | 1018.9 hPa | 0 mm | - | 422 W/m² | - |
| 1787413819 | 10° C | 89% | 1019.1 hPa | 0 mm | - | 308 W/m² | - |
| 1787413515 | 10° C | 90% | 1019.2 hPa | 0 mm | - | 382 W/m² | - |
| 1787413209 | 9.44° C | 91% | 1019 hPa | 0 mm | - | 313 W/m² | - |
| 1787412906 | 9.44° C | 91% | 1018.8 hPa | 0 mm | - | 271 W/m² | - |
| 1787412600 | 8.89° C | 94% | 1019.1 hPa | 0 mm | - | 433 W/m² | - |
| 1787412295 | 8.33° C | 98% | 1019.1 hPa | 0 mm | - | 501 W/m² | - |
| 1787411991 | 7.78° C | 99% | 1018.9 hPa | 0 mm | - | 205 W/m² | - |
| 1787411688 | 7.22° C | 99% | 1019.1 hPa | 0 mm | - | 541 W/m² | - |
| 1787411383 | 6.67° C | 99% | 1018.9 hPa | 0 mm | - | 268 W/m² | - |
| 1787411079 | 7.22° C | 99% | 1019.1 hPa | 0 mm | - | 315 W/m² | - |
| 1787410775 | 6.67° C | 99% | 1018.9 hPa | 0 mm | - | 466 W/m² | - |
* Rain latest hour (hover to see other rain measurements)
** Current wind speed in m/s (hover to see current wind gust speed)